Smith Valley, Nevada Weather observations

Data are for 10 minute period ending at time listed.
 Day   Time   Solar   Ave.   Ave.  Ave.  Vector  Max.   Baro.   Total    
  of    of     Rad.   Air    Rel.  Wind   Wind   Wind  Press.  Precip.   
Year   Day            Temp.  Hum.  Speed  Dir.   Gust                    
2016   (PST)  Kw/m2    F      %     mph   deg.    mph    mb.     in.     
-------------------------------------------------------------------------
 176   18:50   0.10   78.3    14    4.8   285     6.9   855.4    0.00 
 176   19:00   0.04   77.8    13    4.0   297     7.6   855.5    0.00 
 176   19:10   0.01   77.1    12    4.2   270     7.4   855.5    0.00 
 176   19:20   0.01   76.8    13    3.4   308     7.0   855.6    0.00 
 176   19:30   0.01   76.0    14    2.5   300     6.3   855.7    0.00 
 176   19:40   0.00   73.5    17    5.0   301    10.2   855.7    0.00 
 176   19:50   0.00   73.5    16    8.2   266    14.8   855.7    0.00 
 176   20:00   0.00   73.5    16    8.0   272    13.2   855.8    0.00 
 176   20:10   0.00   72.7    17    6.3   280    10.5   856.0    0.00 
 176   20:20   0.00   71.7    16    4.6   354     8.6   856.1    0.00 
 176   20:30   0.00   69.8    17    1.3    90     2.6   856.3    0.00 
 176   20:40   0.00   68.3    20    1.3   190     2.8   856.3    0.00 
 176   20:50   0.00   67.4    20    1.3   147     3.1   856.4    0.00 
 176   21:00   0.00   67.6    20    0.7   246     2.2   856.5    0.00 
 176   21:10   0.00   66.5    22    0.6   112     2.0   856.6    0.00 
 176   21:20   0.00   66.1    22    1.6   127     2.9   856.6    0.00 
 176   21:30   0.00   62.8    28    3.0   186     4.3   856.6    0.00 
 176   21:40   0.00   61.8    30    2.8   191     3.9   856.6    0.00 
 176   21:50   0.00   60.7    33    2.9   197     4.2   856.7    0.00 
 176   22:00   0.00   58.7    37    2.8   212     4.2   856.7    0.00 
 176   22:10   0.00   58.0    40    2.2   221     4.4   856.8    0.00 
 176   22:20   0.00   57.4    44    1.3   221     2.3   856.8    0.00 
 176   22:30   0.00   56.7    44    1.1   255     2.9   856.8    0.00 
 176   22:40   0.00   56.7    40    2.0   317     3.9   856.9    0.00 
 176   22:50   0.00   58.6    30    2.9    54     5.3   857.0    0.00 
 176   23:00   0.00   60.4    27    1.4     8     3.1   857.1    0.00 
 176   23:10   0.00   62.9    23    2.1   331     3.1   857.2    0.00 
 176   23:20   0.00   64.3    20    1.7    20     2.3   857.2    0.00 
 176   23:30   0.00   64.6    20    3.4   348     5.1   857.2    0.00 
 176   23:40   0.00   64.0    20    3.9   343     4.7   857.3    0.00 
 176   23:50   0.00   62.3    25    3.2   316     4.2   857.4    0.00 
 177    0:00   0.00   61.6    24    3.8   325     5.2   857.4    0.00 
 177    0:10   0.00   61.3    25    4.2   310     5.3   857.4    0.00 
 177    0:20   0.00   58.8    36    2.6   282     3.7   857.5    0.00 
 177    0:30   0.00   56.3    36    1.9   219     3.4   857.5    0.00 
 177    0:40   0.00   54.9    38    1.8   190     3.1   857.5    0.00 
 177    0:50   0.00   58.1    32    1.1   123     2.1   857.5    0.00 
 177    1:00   0.00   58.2    31    1.5   108     2.4   857.5    0.00 
 177    1:10   0.00   58.1    31    1.6   130     2.4   857.5    0.00 
 177    1:20   0.00   57.8    33    1.3   142     3.6   857.6    0.00 
 177    1:30   0.00   55.1    47    3.7   255     5.5   857.6    0.00 
 177    1:40   0.00   51.2    50    1.0   316     2.9   857.7    0.00 
 177    1:50   0.00   51.7    45    1.0   262     2.1   857.7    0.00 
 177    2:00   0.00   51.9    45    0.5   241     1.5   857.7    0.00 
 177    2:10   0.00   50.9    53    0.2    67     1.5   857.7    0.00 
 177    2:20   0.00   51.1    47    0.5    56     1.8   857.8    0.00 
 177    2:30   0.00   51.1    45    0.0    26     0.7   857.8    0.00 
 177    2:40   0.00   50.6    46    0.6   252     2.3   857.8    0.00 
 177    2:50   0.00   47.5    56    3.3   194     5.0   857.9    0.00 
 177    3:00   0.00   46.0    60    4.6   212     5.7   857.9    0.00 
 177    3:10   0.00   46.1    58    4.3   207     5.3   858.0    0.00 
 177    3:20   0.00   45.8    59    3.5   197     4.0   858.0    0.00 
 177    3:30   0.00   45.8    60    1.9   158     3.1   858.1    0.00 
 177    3:40   0.00   46.3    53    1.7   161     2.9   858.2    0.00 
 177    3:50   0.00   47.0    49    1.9   171     3.4   858.2    0.00 
 177    4:00   0.00   45.4    55    3.0   200     4.0   858.3    0.00 
 177    4:10   0.00   43.6    65    2.7   179     4.5   858.5    0.00 
 177    4:20   0.00   43.9    61    1.7   132     2.9   858.5    0.00 
 177    4:30   0.00   43.7    60    2.1   121     3.4   858.5    0.00 
 177    4:40   0.01   43.0    63    1.9    89     3.1   858.7    0.00 
 177    4:50   0.01   43.1    62    2.2   172     4.4   858.7    0.00 
 177    5:00   0.04   43.9    58    2.5   168     4.2   858.9    0.00 
 177    5:10   0.06   45.3    56    1.5   187     2.9   858.9    0.00 
 177    5:20   0.08   46.6    54    1.4   111     4.2   859.0    0.00 
 177    5:30   0.10   47.4    58    1.8    80     3.1   859.0    0.00 
 177    5:40   0.13   49.2    56    2.0    94     4.4   859.0    0.00 
 177    5:50   0.16   50.7    53    1.8   100     3.4   859.1    0.00 
 177    6:00   0.19   53.8    49    1.5   103     3.0   859.2    0.00 
 177    6:10   0.22   56.4    45    1.5   108     2.3   859.2    0.00 
 177    6:20   0.25   58.9    36    1.6   178     3.4   859.0    0.00 
 177    6:30   0.28   59.4    36    2.2   202     3.7   858.9    0.00 
 177    6:40   0.31   60.0    35    1.9   207     3.2   858.9    0.00 
 177    6:50   0.34   60.8    33    2.3   204     4.0   858.9    0.00 
 177    7:00   0.37   62.3    29    1.7   196     3.1   859.0    0.00 
 177    7:10   0.40   64.3    25    1.1   196     2.9   859.0    0.00 
 177    7:20   0.43   66.6    24    0.6   140     2.0   859.1    0.00 
 177    7:30   0.46   68.3    23    0.7   174     2.2   859.2    0.00 
 177    7:40   0.49   68.1    22    1.9   163     5.6   859.2    0.00 
 177    7:50   0.53   69.1    22    0.7   267     2.3   859.3    0.00 
 177    8:00   0.56   69.7    21    2.7   325     5.8   859.3    0.00 
 177    8:10   0.58   69.5    21    2.7   304     5.3   859.4    0.00 
 177    8:20   0.61   69.7    18    2.5    33     5.6   859.4    0.00 
 177    8:30   0.64   70.7    16    2.4    64     6.4   859.4    0.00 
 177    8:40   0.67   70.9    16    3.1   358     7.7   859.4    0.00 
 177    8:50   0.70   71.8    16    2.6    89     6.5   859.4    0.00 
 177    9:00   0.72   71.5    16    2.8   344     8.2   859.3    0.00 
 177    9:10   0.75   72.5    15    3.2    23     5.7   859.3    0.00 
 177    9:20   0.77   72.2    15    3.8   356     8.3   859.2    0.00 
 177    9:30   0.79   73.2    14    2.8   137     6.7   859.1    0.00 
 177    9:40   0.81   74.0    15    2.5   315    15.9   859.0    0.00 
 177    9:50   0.83   73.7    15    3.1   315     6.2   859.0    0.00 
 177   10:00   0.85   75.1    14    3.5    40     8.8   859.0    0.00 
 177   10:10   0.87   74.6    13    4.2    35     8.0   858.9    0.00 
 177   10:20   0.89   74.3    14    3.1   305     6.6   858.9    0.00 
 177   10:30   0.90   75.7    15    3.0   247     5.3   858.7    0.00 
 177   10:40   0.92   77.1    15    2.4   264     6.1   858.6    0.00 
 177   10:50   0.93   76.7    13    4.3     7     8.5   858.5    0.00 
 177   11:00   0.94   77.3    14    2.0   220     5.0   858.4    0.00 
 177   11:10   0.95   78.2    14    4.2   153     7.7   858.2    0.00 
 177   11:20   0.95   79.1    13    2.7   221     6.9   858.2    0.00 
 177   11:30   0.96   78.9    13    3.3    19     8.9   858.1    0.00 
 177   11:40   0.97   78.3    12    4.3    17     8.7   857.9    0.00 
 177   11:50   0.97   80.0    13    4.5    71     9.1   857.8    0.00 
 177   12:00   0.97   80.2    12    3.4    79     8.9   857.7    0.00 
 177   12:10   0.97   81.6    12    2.3   129     6.3   857.5    0.00 
 177   12:20   0.97   81.6    12    3.2   119     6.9   857.4    0.00 
 177   12:30   0.97   82.1    14    3.8   267    10.7   857.2    0.00 
 177   12:40   0.96   81.4    14    4.2   248     7.3   857.2    0.00 
 177   12:50   0.95   81.7    14    3.9   249     7.8   857.0    0.00 
 177   13:00   0.95   81.7    13    4.6   334     9.1   856.9    0.00 
 177   13:10   0.94   82.7    12    3.5   302     7.5   856.7    0.00 
 177   13:20   0.93   82.8    12    3.8    46     7.6   856.6    0.00 
 177   13:30   0.92   84.9    11    3.5    85     9.6   856.4    0.00 
 177   13:40   0.91   84.1    13    3.9   280     8.0   856.3    0.00 
 177   13:50   0.89   84.6    12    5.5   340    10.4   856.1    0.00 
 177   14:00   0.88   85.3    11    3.9    31     8.2   856.0    0.00 
 177   14:10   0.86   85.0    12    6.0   305    14.4   855.8    0.00 
 177   14:20   0.84   85.5    11    6.0   351    11.2   855.8    0.00 
 177   14:30   0.82   86.2    10    7.4    10    15.1   855.7    0.00 
 177   14:40   0.80   84.8    11    6.3   330    13.1   855.6    0.00 
 177   14:50   0.78   86.1    11    2.5   351     8.9   855.5    0.00 
 177   15:00   0.76   87.4     9    2.4    98     7.4   855.3    0.00 
 177   15:10   0.73   87.4    11    2.4   295     6.4   855.1    0.00 
 177   15:20   0.70   87.7     9    4.5    20    11.5   855.1    0.00 
 177   15:30   0.68   87.2    10    6.2   355    13.3   855.0    0.00 
 177   15:40   0.65   86.9    10    6.9     0    11.9   854.9    0.00 
 177   15:50   0.63   87.6     9    7.7    29    15.1   854.9    0.00 
 177   16:00   0.60   87.2     9    7.9    13    13.5   854.8    0.00 
 177   16:10   0.57   87.8    10    4.0    58    14.8   854.7    0.00 
 177   16:20   0.54   87.8     9    6.6    26    12.6   854.7    0.00 
 177   16:30   0.51   87.4     9    8.4   355    14.5   854.6    0.00 
 177   16:40   0.48   87.4     9    7.5    26    12.1   854.7    0.00 
 177   16:50   0.45   87.5     9    6.7    26    13.8   854.7    0.00 
 177   17:00   0.42   87.5     9    6.7    28    12.5   854.6    0.00 
 177   17:10   0.39   87.7     9    5.9    33     9.6   854.6    0.00 
 177   17:20   0.35   87.4     9    4.2    46     9.6   854.7    0.00 
 177   17:30   0.32   87.0    10    5.2    56    10.8   854.6    0.00 
 177   17:40   0.29   86.7     9    6.5    31    12.5   854.7    0.00 
 177   17:50   0.26   86.8     9    5.3    21     9.0   854.7    0.00 
 177   18:00   0.23   86.8     9    5.3    23     8.0   854.8    0.00 
 177   18:10   0.20   86.5     9    4.8    23     7.9   854.8    0.00 
 177   18:20   0.17   86.2     9    4.5    10     7.2   854.9    0.00 
 177   18:30   0.14   85.7     9    4.9    11     7.1   855.0    0.00 
 177   18:40   0.12   85.0     9    5.1    12     8.9   855.0    0.00 

Return to Smith Valley graphs page.


Western Regional Climate Center,wrcc@dri.edu